createdAt,value
2023-05-06T00:00:34.921Z,5.61
2023-05-06T00:05:39.417Z,5.89
2023-05-06T00:10:43.318Z,6.18
2023-05-06T00:15:47.816Z,6.38
2023-05-06T00:20:51.933Z,6.62
2023-05-06T00:25:56.006Z,6.86
2023-05-06T00:31:00.182Z,7.21
2023-05-06T00:36:04.117Z,7.57
2023-05-06T00:41:09.129Z,7.98
2023-05-06T00:46:16.199Z,8.39
2023-05-06T00:51:20.417Z,8.73
2023-05-06T00:56:24.684Z,9.34
2023-05-06T01:01:32.368Z,9.89
2023-05-06T01:06:57.831Z,10.53
2023-05-06T01:12:25.063Z,11.04
2023-05-06T01:17:32.638Z,11.32
2023-05-06T01:22:38.556Z,11.95
2023-05-06T01:27:42.449Z,12.36
2023-05-06T01:33:34.268Z,12.75
2023-05-06T01:38:53.411Z,13.17
2023-05-06T01:44:00.940Z,13.47
2023-05-06T01:49:12.316Z,13.77
2023-05-06T01:54:16.098Z,14.09
2023-05-06T01:59:20.272Z,14.44
2023-05-06T02:04:24.191Z,14.62
2023-05-06T02:09:28.381Z,14.86
2023-05-06T02:14:37.310Z,15.07
2023-05-06T02:19:42.048Z,15.36
2023-05-06T02:24:45.885Z,15.60
2023-05-06T02:29:50.055Z,15.81
2023-05-06T02:34:53.905Z,15.75
2023-05-06T02:39:59.111Z,16.11
2023-05-06T02:45:03.432Z,16.13
2023-05-06T02:50:09.388Z,16.41
2023-05-06T02:55:14.213Z,16.29
2023-05-06T03:00:18.665Z,16.38
2023-05-06T03:05:22.700Z,16.60
2023-05-06T03:10:26.814Z,17.01
2023-05-06T03:15:33.107Z,17.36
2023-05-06T03:20:37.200Z,17.24
2023-05-06T03:25:41.744Z,17.48
2023-05-06T03:30:45.922Z,17.26
2023-05-06T03:35:50.326Z,17.22
2023-05-06T03:40:54.644Z,17.49
2023-05-06T03:45:59.747Z,18.01
2023-05-06T03:51:03.923Z,18.40
2023-05-06T03:56:08.978Z,18.67
2023-05-06T04:01:15.523Z,18.92
2023-05-06T04:06:19.653Z,19.18
2023-05-06T04:11:24.329Z,19.34
2023-05-06T04:16:28.799Z,19.59
2023-05-06T04:21:32.972Z,19.73
2023-05-06T04:26:41.816Z,19.72
2023-05-06T04:31:47.060Z,19.59
2023-05-06T04:36:52.083Z,20.02
2023-05-06T04:42:12.076Z,20.24
2023-05-06T04:47:22.807Z,20.30
2023-05-06T04:52:29.097Z,20.41
2023-05-06T04:57:33.187Z,20.44
2023-05-06T05:02:37.834Z,20.37
2023-05-06T05:07:43.213Z,20.64
2023-05-06T05:12:47.370Z,20.74
2023-05-06T05:17:52.361Z,20.94
2023-05-06T05:22:59.096Z,21.14
2023-05-06T05:28:04.845Z,21.27
2023-05-06T05:33:10.888Z,21.29
2023-05-06T05:38:15.971Z,21.26
2023-05-06T05:43:22.163Z,21.45
2023-05-06T05:48:26.838Z,21.49
2023-05-06T05:53:31.918Z,21.42
2023-05-06T05:58:36.256Z,21.48
2023-05-06T06:03:40.655Z,21.39
2023-05-06T06:08:45.164Z,21.22
2023-05-06T06:13:51.750Z,21.62
2023-05-06T06:18:56.138Z,21.72
2023-05-06T06:24:00.257Z,21.86
2023-05-06T06:29:04.365Z,21.68
2023-05-06T06:34:10.519Z,22.09
2023-05-06T06:39:15.696Z,22.20
2023-05-06T06:44:19.668Z,22.33
2023-05-06T06:49:23.572Z,22.58
2023-05-06T06:54:27.458Z,22.79
2023-05-06T06:59:31.418Z,23.15
2023-05-06T07:04:35.337Z,23.23
2023-05-06T07:09:40.610Z,23.16
2023-05-06T07:14:44.672Z,23.23
2023-05-06T07:19:48.735Z,23.39
2023-05-06T07:24:52.662Z,23.29
2023-05-06T07:29:56.567Z,23.72
2023-05-06T07:35:00.615Z,23.76
2023-05-06T07:40:05.499Z,23.85
2023-05-06T07:45:10.130Z,23.73
2023-05-06T07:50:14.097Z,23.55
2023-05-06T07:55:18.132Z,23.75
2023-05-06T08:00:22.209Z,23.66
2023-05-06T08:05:26.200Z,24.26
2023-05-06T08:10:30.253Z,24.29
2023-05-06T08:15:34.384Z,24.13
2023-05-06T08:20:38.614Z,24.05
2023-05-06T08:25:42.695Z,24.23
2023-05-06T08:30:48.982Z,24.19
2023-05-06T08:35:53.058Z,23.71
2023-05-06T08:41:04.221Z,23.62
2023-05-06T08:46:08.513Z,23.34
2023-05-06T08:51:16.130Z,23.57
2023-05-06T08:56:22.974Z,23.67
2023-05-06T09:01:28.587Z,23.66
2023-05-06T09:06:32.590Z,23.36
2023-05-06T09:11:39.588Z,23.56
2023-05-06T09:16:46.111Z,23.54
2023-05-06T09:21:52.677Z,23.28
2023-05-06T09:26:57.549Z,23.85
2023-05-06T09:32:08.815Z,23.77
2023-05-06T09:37:13.367Z,23.57
2023-05-06T09:42:17.547Z,23.38
2023-05-06T09:47:24.709Z,23.22
2023-05-06T09:52:29.818Z,23.20
2023-05-06T09:57:34.378Z,23.17
2023-05-06T10:02:41.247Z,23.14
2023-05-06T10:07:48.867Z,23.46
2023-05-06T10:12:53.663Z,23.37
2023-05-06T10:18:00.441Z,23.46
2023-05-06T10:23:33.202Z,23.26
2023-05-06T10:28:44.214Z,23.13
2023-05-06T10:33:52.182Z,23.18
2023-05-06T10:38:57.964Z,23.45
2023-05-06T10:44:02.003Z,23.19
2023-05-06T10:49:07.184Z,23.01
2023-05-06T10:54:21.574Z,22.91
2023-05-06T10:59:26.551Z,22.81
2023-05-06T11:04:32.172Z,22.64
2023-05-06T11:09:56.784Z,22.60
2023-05-06T11:15:40.901Z,22.72
2023-05-06T11:20:44.897Z,22.68
2023-05-06T11:25:48.948Z,22.62
2023-05-06T11:30:56.705Z,22.64
2023-05-06T11:36:02.188Z,22.59
2023-05-06T11:41:06.154Z,22.60
2023-05-06T11:46:10.249Z,22.69
2023-05-06T11:51:14.397Z,22.77
2023-05-06T11:56:18.528Z,22.72
2023-05-06T12:01:22.770Z,22.60
2023-05-06T12:06:36.694Z,22.52
2023-05-06T12:11:43.646Z,22.39
2023-05-06T12:16:49.064Z,22.45
2023-05-06T12:21:53.352Z,22.46
2023-05-06T12:26:57.203Z,22.14
2023-05-06T12:32:12.503Z,22.22
2023-05-06T12:37:28.945Z,21.79
2023-05-06T12:42:32.964Z,21.52
2023-05-06T12:47:36.820Z,21.57
2023-05-06T12:52:45.807Z,21.65
2023-05-06T12:57:50.285Z,21.64
2023-05-06T13:02:54.259Z,21.52
2023-05-06T13:07:58.110Z,21.40
2023-05-06T13:13:02.114Z,21.27
2023-05-06T13:18:06.560Z,21.14
2023-05-06T13:23:10.843Z,21.04
2023-05-06T13:28:14.747Z,20.87
2023-05-06T13:33:18.743Z,20.80
2023-05-06T13:38:23.041Z,20.56
2023-05-06T13:43:26.980Z,20.26
2023-05-06T13:48:30.988Z,19.49
2023-05-06T13:53:35.555Z,19.01
2023-05-06T13:58:40.246Z,18.60
2023-05-06T14:03:44.111Z,18.26
2023-05-06T14:08:48.597Z,17.97
2023-05-06T14:13:52.622Z,17.69
2023-05-06T14:18:56.694Z,17.27
2023-05-06T14:24:01.157Z,16.87
2023-05-06T14:29:04.993Z,16.46
2023-05-06T14:34:09.158Z,16.30
2023-05-06T14:39:13.565Z,16.03
2023-05-06T14:44:17.431Z,15.81
2023-05-06T14:49:22.062Z,15.50
2023-05-06T14:54:27.379Z,15.46
2023-05-06T14:59:31.789Z,15.34
2023-05-06T15:04:37.305Z,15.11
2023-05-06T15:09:44.842Z,14.69
2023-05-06T15:14:48.786Z,15.16
2023-05-06T15:19:52.714Z,15.69
2023-05-06T15:24:56.674Z,15.78
2023-05-06T15:30:05.041Z,15.97
2023-05-06T15:35:09.595Z,15.84
2023-05-06T15:40:15.766Z,15.38
2023-05-06T15:45:20.325Z,15.36
2023-05-06T15:50:32.756Z,15.20
2023-05-06T15:55:46.497Z,15.10
2023-05-06T16:00:56.837Z,14.88
2023-05-06T16:06:00.845Z,14.82
2023-05-06T16:11:06.468Z,14.77
2023-05-06T16:16:10.368Z,14.78
2023-05-06T16:21:14.417Z,14.67
2023-05-06T16:26:18.691Z,14.64
2023-05-06T16:31:22.869Z,13.70
2023-05-06T16:36:29.129Z,13.27
2023-05-06T16:41:33.279Z,12.78
2023-05-06T16:46:37.269Z,12.45
2023-05-06T16:51:41.478Z,12.24
2023-05-06T16:56:52.213Z,12.41
2023-05-06T17:01:56.701Z,12.36
2023-05-06T17:07:00.599Z,12.36
2023-05-06T17:12:04.763Z,12.17
2023-05-06T17:17:08.621Z,11.95
2023-05-06T17:22:12.736Z,11.73
2023-05-06T17:27:17.150Z,11.47
2023-05-06T17:32:21.390Z,10.96
2023-05-06T17:37:25.360Z,11.15
2023-05-06T17:42:29.477Z,11.03
2023-05-06T17:47:33.609Z,11.16
2023-05-06T17:52:37.438Z,10.74
2023-05-06T17:57:41.444Z,10.78
2023-05-06T18:02:45.978Z,10.52
2023-05-06T18:07:50.427Z,10.33
2023-05-06T18:12:56.197Z,10.10
2023-05-06T18:18:00.281Z,10.17
2023-05-06T18:23:04.363Z,10.09
2023-05-06T18:28:09.131Z,10.06
2023-05-06T18:33:13.239Z,10.04
2023-05-06T18:38:17.137Z,9.92
2023-05-06T18:43:21.239Z,9.72
2023-05-06T18:48:25.150Z,9.68
2023-05-06T18:53:28.963Z,9.67
2023-05-06T18:58:33.114Z,9.60
2023-05-06T19:03:36.958Z,9.63
2023-05-06T19:08:42.243Z,9.57
2023-05-06T19:13:46.737Z,9.52
2023-05-06T19:18:50.769Z,9.23
2023-05-06T19:24:00.522Z,9.04
2023-05-06T19:29:04.431Z,8.83
2023-05-06T19:34:08.960Z,8.58
2023-05-06T19:39:13.071Z,8.61
2023-05-06T19:44:16.929Z,8.47
2023-05-06T19:49:21.076Z,8.41
2023-05-06T19:54:25.137Z,8.21
2023-05-06T19:59:28.992Z,8.18
2023-05-06T20:04:34.466Z,8.06
2023-05-06T20:09:38.273Z,7.90
2023-05-06T20:14:42.369Z,7.69
2023-05-06T20:19:47.553Z,7.82
2023-05-06T20:24:52.063Z,7.70
2023-05-06T20:29:56.102Z,7.69
2023-05-06T20:36:17.178Z,7.54
2023-05-06T20:41:22.474Z,7.43
2023-05-06T20:46:26.546Z,7.34
2023-05-06T20:51:30.617Z,7.20
2023-05-06T20:56:34.422Z,7.22
2023-05-06T21:01:38.266Z,7.13
2023-05-06T21:06:42.385Z,7.04
2023-05-06T21:11:46.706Z,6.97
2023-05-06T21:16:50.763Z,6.52
2023-05-06T21:22:14.924Z,6.84
2023-05-06T21:27:18.810Z,6.73
2023-05-06T21:32:23.118Z,6.78
2023-05-06T21:37:26.937Z,6.44
2023-05-06T21:42:31.904Z,6.56
2023-05-06T21:47:35.843Z,6.13
2023-05-06T21:52:40.376Z,6.51
2023-05-06T21:57:45.304Z,6.49
2023-05-06T22:02:50.176Z,6.45
2023-05-06T22:07:54.276Z,6.31
2023-05-06T22:12:58.985Z,6.19
2023-05-06T22:18:03.047Z,6.10
2023-05-06T22:23:07.083Z,5.94
2023-05-06T22:28:11.117Z,6.12
2023-05-06T22:33:15.260Z,5.99
2023-05-06T22:38:19.224Z,6.08
2023-05-06T22:43:23.290Z,5.99
2023-05-06T22:48:27.192Z,5.91
2023-05-06T22:53:31.484Z,5.87
2023-05-06T22:58:35.698Z,5.70
2023-05-06T23:03:39.659Z,5.75
2023-05-06T23:08:43.528Z,5.91
2023-05-06T23:13:47.913Z,5.84
2023-05-06T23:18:51.843Z,5.98
2023-05-06T23:23:56.061Z,5.85
2023-05-06T23:28:59.848Z,5.66
2023-05-06T23:34:04.379Z,6.09
2023-05-06T23:39:11.095Z,6.23
2023-05-06T23:44:15.227Z,6.01
2023-05-06T23:49:19.229Z,6.55
2023-05-06T23:54:23.267Z,6.70
2023-05-06T23:59:27.055Z,7.13
